sensor_id;sensor_type;location;lat;lon;timestamp;pressure;altitude;pressure_sealevel;temperature;humidity
53715;BME280;39608;55.630;37.864;2022-08-04T00:01:02;99924.97;;;22.01;50.40
53715;BME280;39608;55.630;37.864;2022-08-04T00:06:10;99933.97;;;21.98;50.13
53715;BME280;39608;55.630;37.864;2022-08-04T00:11:19;99924.81;;;21.94;50.38
53715;BME280;39608;55.630;37.864;2022-08-04T00:16:22;99930.72;;;21.77;50.61
53715;BME280;39608;55.630;37.864;2022-08-04T00:21:26;99936.56;;;21.72;50.53
53715;BME280;39608;55.630;37.864;2022-08-04T00:26:31;99932.38;;;21.62;51.25
53715;BME280;39608;55.630;37.864;2022-08-04T00:31:36;99928.75;;;21.58;51.38
53715;BME280;39608;55.630;37.864;2022-08-04T00:36:39;99936.38;;;21.48;51.32
53715;BME280;39608;55.630;37.864;2022-08-04T00:41:51;99942.53;;;21.58;49.99
53715;BME280;39608;55.630;37.864;2022-08-04T00:47:25;99940.66;;;21.62;49.77
53715;BME280;39608;55.630;37.864;2022-08-04T00:52:47;99938.69;;;21.62;50.24
53715;BME280;39608;55.630;37.864;2022-08-04T00:58:15;99956.88;;;21.63;50.75
53715;BME280;39608;55.630;37.864;2022-08-04T01:03:28;99944.47;;;21.57;51.25
53715;BME280;39608;55.630;37.864;2022-08-04T01:08:53;99946.06;;;21.74;50.98
53715;BME280;39608;55.630;37.864;2022-08-04T01:19:52;99950.72;;;21.70;51.75
53715;BME280;39608;55.630;37.864;2022-08-04T01:25:08;99949.00;;;21.65;51.92
53715;BME280;39608;55.630;37.864;2022-08-04T01:30:18;99955.44;;;21.53;52.65
53715;BME280;39608;55.630;37.864;2022-08-04T01:35:23;99953.56;;;21.42;52.20
53715;BME280;39608;55.630;37.864;2022-08-04T01:40:27;99951.88;;;21.37;52.22
53715;BME280;39608;55.630;37.864;2022-08-04T01:45:31;99968.78;;;21.35;51.98
53715;BME280;39608;55.630;37.864;2022-08-04T01:50:35;99971.72;;;21.27;52.23
53715;BME280;39608;55.630;37.864;2022-08-04T01:55:38;99963.19;;;21.16;52.48
53715;BME280;39608;55.630;37.864;2022-08-04T02:00:49;99976.44;;;21.26;52.68
53715;BME280;39608;55.630;37.864;2022-08-04T02:06:03;99969.22;;;21.22;52.73
53715;BME280;39608;55.630;37.864;2022-08-04T02:11:14;99963.72;;;21.06;52.72
53715;BME280;39608;55.630;37.864;2022-08-04T02:16:26;99967.88;;;20.99;52.86
53715;BME280;39608;55.630;37.864;2022-08-04T02:21:30;99970.63;;;20.83;52.91
53715;BME280;39608;55.630;37.864;2022-08-04T02:26:33;99971.41;;;20.84;53.17
53715;BME280;39608;55.630;37.864;2022-08-04T02:31:42;99969.91;;;20.87;53.12
53715;BME280;39608;55.630;37.864;2022-08-04T02:36:50;99961.81;;;20.78;53.79
53715;BME280;39608;55.630;37.864;2022-08-04T02:41:54;99965.81;;;20.80;53.78
53715;BME280;39608;55.630;37.864;2022-08-04T02:46:59;99975.59;;;20.78;53.90
53715;BME280;39608;55.630;37.864;2022-08-04T02:52:02;99977.81;;;20.72;54.37
53715;BME280;39608;55.630;37.864;2022-08-04T02:57:08;99978.44;;;20.81;54.48
53715;BME280;39608;55.630;37.864;2022-08-04T03:02:14;99987.97;;;20.84;54.75
53715;BME280;39608;55.630;37.864;2022-08-04T03:13:24;99989.09;;;21.11;53.62
53715;BME280;39608;55.630;37.864;2022-08-04T03:24:50;99994.41;;;21.20;52.91
53715;BME280;39608;55.630;37.864;2022-08-04T03:30:06;99986.22;;;21.24;53.01
53715;BME280;39608;55.630;37.864;2022-08-04T03:35:39;99997.69;;;21.42;52.30
53715;BME280;39608;55.630;37.864;2022-08-04T03:46:43;99993.97;;;21.50;52.01
53715;BME280;39608;55.630;37.864;2022-08-04T03:51:57;99997.03;;;21.61;51.29
53715;BME280;39608;55.630;37.864;2022-08-04T03:57:41;100007.75;;;21.82;51.00
53715;BME280;39608;55.630;37.864;2022-08-04T04:14:29;100026.25;;;22.33;50.04
53715;BME280;39608;55.630;37.864;2022-08-04T04:25:45;100022.88;;;22.59;50.10
53715;BME280;39608;55.630;37.864;2022-08-04T04:31:01;100032.63;;;22.72;50.16
53715;BME280;39608;55.630;37.864;2022-08-04T04:36:09;100027.06;;;23.12;49.00
53715;BME280;39608;55.630;37.864;2022-08-04T04:41:34;100022.91;;;23.02;49.55
53715;BME280;39608;55.630;37.864;2022-08-04T04:46:42;100020.06;;;23.18;49.01
53715;BME280;39608;55.630;37.864;2022-08-04T04:51:48;100036.50;;;23.30;48.59
53715;BME280;39608;55.630;37.864;2022-08-04T04:56:59;100035.69;;;23.53;48.53
53715;BME280;39608;55.630;37.864;2022-08-04T05:08:01;100037.78;;;24.09;47.34
53715;BME280;39608;55.630;37.864;2022-08-04T05:13:20;100035.06;;;24.74;46.60
53715;BME280;39608;55.630;37.864;2022-08-04T05:18:28;100041.59;;;25.75;45.14
53715;BME280;39608;55.630;37.864;2022-08-04T05:23:36;100042.84;;;26.40;43.99
53715;BME280;39608;55.630;37.864;2022-08-04T05:28:41;100040.66;;;27.00;43.19
53715;BME280;39608;55.630;37.864;2022-08-04T05:33:48;100043.56;;;27.58;42.00
53715;BME280;39608;55.630;37.864;2022-08-04T05:38:53;100033.56;;;27.96;40.46
53715;BME280;39608;55.630;37.864;2022-08-04T05:43:59;100044.59;;;28.47;39.57
53715;BME280;39608;55.630;37.864;2022-08-04T05:49:04;100043.31;;;28.77;38.90
53715;BME280;39608;55.630;37.864;2022-08-04T05:54:08;100042.28;;;29.16;38.28
53715;BME280;39608;55.630;37.864;2022-08-04T05:59:11;100049.28;;;29.95;37.12
53715;BME280;39608;55.630;37.864;2022-08-04T06:04:17;100046.34;;;30.47;35.90
53715;BME280;39608;55.630;37.864;2022-08-04T06:09:22;100047.09;;;30.51;35.57
53715;BME280;39608;55.630;37.864;2022-08-04T06:14:24;100041.66;;;30.68;35.09
53715;BME280;39608;55.630;37.864;2022-08-04T06:19:29;100039.91;;;30.81;34.75
53715;BME280;39608;55.630;37.864;2022-08-04T06:24:32;100045.50;;;30.81;34.32
53715;BME280;39608;55.630;37.864;2022-08-04T06:29:37;100033.91;;;30.79;33.59
53715;BME280;39608;55.630;37.864;2022-08-04T06:34:43;100044.81;;;31.01;33.31
53715;BME280;39608;55.630;37.864;2022-08-04T06:39:46;100051.06;;;31.16;32.16
53715;BME280;39608;55.630;37.864;2022-08-04T06:44:50;100049.63;;;31.31;32.93
53715;BME280;39608;55.630;37.864;2022-08-04T06:49:55;100050.66;;;31.41;32.93
53715;BME280;39608;55.630;37.864;2022-08-04T06:54:57;100040.78;;;31.33;31.93
53715;BME280;39608;55.630;37.864;2022-08-04T07:00:02;100034.63;;;31.42;31.02
53715;BME280;39608;55.630;37.864;2022-08-04T07:05:07;100053.91;;;31.63;30.59
53715;BME280;39608;55.630;37.864;2022-08-04T07:10:11;100049.19;;;32.04;32.14
53715;BME280;39608;55.630;37.864;2022-08-04T07:15:15;100044.31;;;31.84;31.02
53715;BME280;39608;55.630;37.864;2022-08-04T07:20:20;100031.06;;;32.08;29.99
53715;BME280;39608;55.630;37.864;2022-08-04T07:25:23;100038.88;;;32.41;29.84
53715;BME280;39608;55.630;37.864;2022-08-04T07:30:27;100020.06;;;32.58;29.85
53715;BME280;39608;55.630;37.864;2022-08-04T07:35:33;100030.28;;;33.21;28.06
53715;BME280;39608;55.630;37.864;2022-08-04T07:40:36;100035.94;;;32.85;28.04
53715;BME280;39608;55.630;37.864;2022-08-04T07:45:38;100039.03;;;32.90;28.11
53715;BME280;39608;55.630;37.864;2022-08-04T07:50:43;100031.84;;;33.26;27.26
53715;BME280;39608;55.630;37.864;2022-08-04T07:55:46;100024.41;;;33.16;27.67
53715;BME280;39608;55.630;37.864;2022-08-04T08:00:48;100026.22;;;33.26;27.78
53715;BME280;39608;55.630;37.864;2022-08-04T08:05:52;100028.91;;;33.63;27.36
53715;BME280;39608;55.630;37.864;2022-08-04T08:10:55;100021.88;;;33.87;26.69
53715;BME280;39608;55.630;37.864;2022-08-04T08:15:58;100028.06;;;34.24;26.50
53715;BME280;39608;55.630;37.864;2022-08-04T08:21:02;100018.66;;;34.31;26.96
53715;BME280;39608;55.630;37.864;2022-08-04T08:26:05;100032.25;;;34.75;26.45
53715;BME280;39608;55.630;37.864;2022-08-04T08:31:07;100025.91;;;34.16;26.32
53715;BME280;39608;55.630;37.864;2022-08-04T08:36:16;100025.16;;;34.28;26.75
53715;BME280;39608;55.630;37.864;2022-08-04T08:41:46;100026.53;;;34.78;26.69
53715;BME280;39608;55.630;37.864;2022-08-04T08:47:00;100026.28;;;33.55;27.07
53715;BME280;39608;55.630;37.864;2022-08-04T08:52:23;100033.94;;;32.65;28.79
53715;BME280;39608;55.630;37.864;2022-08-04T08:57:45;100018.91;;;33.45;28.01
53715;BME280;39608;55.630;37.864;2022-08-04T09:09:09;100036.09;;;35.58;26.80
53715;BME280;39608;55.630;37.864;2022-08-04T09:14:19;100031.81;;;35.89;25.04
53715;BME280;39608;55.630;37.864;2022-08-04T09:19:26;100022.91;;;35.90;25.49
53715;BME280;39608;55.630;37.864;2022-08-04T09:24:37;100025.31;;;35.05;25.77
53715;BME280;39608;55.630;37.864;2022-08-04T09:29:48;100029.13;;;34.31;26.54
53715;BME280;39608;55.630;37.864;2022-08-04T09:34:57;100017.50;;;35.35;25.56
53715;BME280;39608;55.630;37.864;2022-08-04T09:40:12;100014.19;;;36.20;25.03
53715;BME280;39608;55.630;37.864;2022-08-04T09:45:25;100021.81;;;35.40;25.53
53715;BME280;39608;55.630;37.864;2022-08-04T09:50:33;100019.38;;;34.61;26.44
53715;BME280;39608;55.630;37.864;2022-08-04T09:55:45;100015.66;;;34.51;26.96
53715;BME280;39608;55.630;37.864;2022-08-04T10:00:59;100013.31;;;35.53;25.70
53715;BME280;39608;55.630;37.864;2022-08-04T10:06:09;100006.06;;;36.44;25.07
53715;BME280;39608;55.630;37.864;2022-08-04T10:11:20;100020.88;;;37.29;24.34
53715;BME280;39608;55.630;37.864;2022-08-04T10:16:38;100005.84;;;37.70;23.66
53715;BME280;39608;55.630;37.864;2022-08-04T10:21:57;100014.16;;;37.45;24.42
53715;BME280;39608;55.630;37.864;2022-08-04T10:27:07;100015.13;;;37.02;24.55
53715;BME280;39608;55.630;37.864;2022-08-04T10:32:16;100015.34;;;35.87;24.91
53715;BME280;39608;55.630;37.864;2022-08-04T10:37:22;100010.03;;;34.22;26.67
53715;BME280;39608;55.630;37.864;2022-08-04T10:42:28;100001.50;;;33.34;27.81
53715;BME280;39608;55.630;37.864;2022-08-04T10:47:40;100020.53;;;32.93;28.12
53715;BME280;39608;55.630;37.864;2022-08-04T10:53:02;100020.34;;;32.64;29.37
53715;BME280;39608;55.630;37.864;2022-08-04T10:58:09;100002.91;;;32.72;28.70
53715;BME280;39608;55.630;37.864;2022-08-04T11:03:20;100017.44;;;34.32;26.70
53715;BME280;39608;55.630;37.864;2022-08-04T11:08:26;100025.84;;;35.87;24.84
53715;BME280;39608;55.630;37.864;2022-08-04T11:13:43;100020.78;;;36.70;23.65
53715;BME280;39608;55.630;37.864;2022-08-04T11:18:52;100017.69;;;37.18;22.89
53715;BME280;39608;55.630;37.864;2022-08-04T11:24:02;100017.53;;;37.81;22.19
53715;BME280;39608;55.630;37.864;2022-08-04T11:29:15;100029.13;;;38.20;22.38
53715;BME280;39608;55.630;37.864;2022-08-04T11:34:20;100017.16;;;38.44;22.00
53715;BME280;39608;55.630;37.864;2022-08-04T11:39:27;100002.28;;;38.67;21.52
53715;BME280;39608;55.630;37.864;2022-08-04T11:44:40;100008.97;;;38.89;21.35
53715;BME280;39608;55.630;37.864;2022-08-04T11:49:45;100009.59;;;38.41;22.50
53715;BME280;39608;55.630;37.864;2022-08-04T11:54:49;99991.97;;;38.18;22.49
53715;BME280;39608;55.630;37.864;2022-08-04T11:59:54;100003.78;;;38.35;22.33
53715;BME280;39608;55.630;37.864;2022-08-04T12:04:59;100003.88;;;38.59;21.81
53715;BME280;39608;55.630;37.864;2022-08-04T12:10:13;99989.50;;;39.06;21.46
53715;BME280;39608;55.630;37.864;2022-08-04T12:15:24;99991.19;;;38.36;21.73
53715;BME280;39608;55.630;37.864;2022-08-04T12:20:28;99979.75;;;37.84;22.33
53715;BME280;39608;55.630;37.864;2022-08-04T12:25:34;99986.00;;;37.51;22.42
53715;BME280;39608;55.630;37.864;2022-08-04T12:30:44;99996.13;;;37.89;21.94
53715;BME280;39608;55.630;37.864;2022-08-04T12:35:54;99985.22;;;38.25;21.58
53715;BME280;39608;55.630;37.864;2022-08-04T12:40:59;99977.00;;;38.88;20.92
53715;BME280;39608;55.630;37.864;2022-08-04T12:46:07;99977.59;;;39.26;20.85
53715;BME280;39608;55.630;37.864;2022-08-04T12:51:10;99981.59;;;39.10;20.75
53715;BME280;39608;55.630;37.864;2022-08-04T12:56:14;99972.47;;;38.81;20.60
53715;BME280;39608;55.630;37.864;2022-08-04T13:01:20;99982.75;;;39.03;21.00
53715;BME280;39608;55.630;37.864;2022-08-04T13:06:24;99970.56;;;39.12;20.24
53715;BME280;39608;55.630;37.864;2022-08-04T13:11:27;99973.94;;;39.01;19.97
53715;BME280;39608;55.630;37.864;2022-08-04T13:16:32;99971.31;;;38.88;20.83
53715;BME280;39608;55.630;37.864;2022-08-04T13:21:39;99973.53;;;38.84;21.01
53715;BME280;39608;55.630;37.864;2022-08-04T13:26:48;99967.53;;;38.91;20.95
53715;BME280;39608;55.630;37.864;2022-08-04T13:31:55;99962.78;;;38.97;20.96
53715;BME280;39608;55.630;37.864;2022-08-04T13:37:00;99963.53;;;38.64;21.37
53715;BME280;39608;55.630;37.864;2022-08-04T13:42:07;99956.13;;;38.67;21.07
53715;BME280;39608;55.630;37.864;2022-08-04T13:47:14;99946.75;;;38.85;21.53
53715;BME280;39608;55.630;37.864;2022-08-04T13:52:17;99956.56;;;39.08;21.45
53715;BME280;39608;55.630;37.864;2022-08-04T13:57:29;99949.00;;;38.81;22.24
53715;BME280;39608;55.630;37.864;2022-08-04T14:02:37;99942.09;;;38.73;21.82
53715;BME280;39608;55.630;37.864;2022-08-04T14:07:41;99938.75;;;38.83;22.23
53715;BME280;39608;55.630;37.864;2022-08-04T14:12:47;99937.84;;;38.77;21.77
53715;BME280;39608;55.630;37.864;2022-08-04T14:17:51;99930.94;;;38.17;22.24
53715;BME280;39608;55.630;37.864;2022-08-04T14:22:59;99939.13;;;38.15;22.32
53715;BME280;39608;55.630;37.864;2022-08-04T14:28:02;99935.25;;;37.57;23.13
53715;BME280;39608;55.630;37.864;2022-08-04T14:33:08;99935.47;;;36.94;23.86
53715;BME280;39608;55.630;37.864;2022-08-04T14:38:10;99933.66;;;36.78;23.96
53715;BME280;39608;55.630;37.864;2022-08-04T14:43:16;99927.84;;;36.31;24.12
53715;BME280;39608;55.630;37.864;2022-08-04T14:48:20;99928.66;;;35.88;25.06
53715;BME280;39608;55.630;37.864;2022-08-04T14:53:23;99938.94;;;35.82;25.28
53715;BME280;39608;55.630;37.864;2022-08-04T14:58:30;99937.66;;;35.60;25.46
53715;BME280;39608;55.630;37.864;2022-08-04T15:03:34;99931.97;;;35.38;26.01
53715;BME280;39608;55.630;37.864;2022-08-04T15:08:41;99940.28;;;35.07;26.32
53715;BME280;39608;55.630;37.864;2022-08-04T15:13:43;99928.16;;;34.84;26.48
53715;BME280;39608;55.630;37.864;2022-08-04T15:18:47;99932.28;;;34.67;26.86
53715;BME280;39608;55.630;37.864;2022-08-04T15:23:50;99932.75;;;34.39;26.98
53715;BME280;39608;55.630;37.864;2022-08-04T15:28:55;99938.78;;;33.83;27.72
53715;BME280;39608;55.630;37.864;2022-08-04T15:34:00;99937.94;;;33.23;27.99
53715;BME280;39608;55.630;37.864;2022-08-04T15:39:17;99941.16;;;32.52;28.93
53715;BME280;39608;55.630;37.864;2022-08-04T15:50:04;99931.22;;;31.47;30.32
53715;BME280;39608;55.630;37.864;2022-08-04T15:55:34;99942.13;;;31.18;30.85
53715;BME280;39608;55.630;37.864;2022-08-04T16:01:14;99944.47;;;31.23;30.54
53715;BME280;39608;55.630;37.864;2022-08-04T16:06:43;99950.19;;;31.16;30.63
53715;BME280;39608;55.630;37.864;2022-08-04T16:11:45;99947.50;;;30.81;32.08
53715;BME280;39608;55.630;37.864;2022-08-04T16:16:48;99949.91;;;30.79;32.39
53715;BME280;39608;55.630;37.864;2022-08-04T16:21:54;99949.97;;;30.76;32.70
53715;BME280;39608;55.630;37.864;2022-08-04T16:26:57;99952.88;;;30.68;33.55
53715;BME280;39608;55.630;37.864;2022-08-04T16:32:13;99951.59;;;30.73;32.30
53715;BME280;39608;55.630;37.864;2022-08-04T16:37:17;99956.47;;;30.96;31.35
53715;BME280;39608;55.630;37.864;2022-08-04T16:42:31;99956.28;;;30.52;32.88
53715;BME280;39608;55.630;37.864;2022-08-04T16:48:01;99968.59;;;30.28;33.17
53715;BME280;39608;55.630;37.864;2022-08-04T16:53:10;99961.38;;;29.96;33.32
53715;BME280;39608;55.630;37.864;2022-08-04T16:58:16;99963.16;;;29.79;34.00
53715;BME280;39608;55.630;37.864;2022-08-04T17:03:18;99955.69;;;29.65;33.74
53715;BME280;39608;55.630;37.864;2022-08-04T17:08:27;99959.28;;;29.62;34.01
53715;BME280;39608;55.630;37.864;2022-08-04T17:13:33;99953.84;;;29.47;33.34
53715;BME280;39608;55.630;37.864;2022-08-04T17:18:36;99965.09;;;29.40;33.68
53715;BME280;39608;55.630;37.864;2022-08-04T17:23:42;99954.75;;;29.37;34.02
53715;BME280;39608;55.630;37.864;2022-08-04T17:28:45;99972.47;;;29.65;32.91
53715;BME280;39608;55.630;37.864;2022-08-04T17:33:49;99968.06;;;29.15;34.22
53715;BME280;39608;55.630;37.864;2022-08-04T17:38:54;99964.53;;;29.07;34.04
53715;BME280;39608;55.630;37.864;2022-08-04T17:43:58;99967.84;;;28.95;34.29
53715;BME280;39608;55.630;37.864;2022-08-04T17:49:05;99983.00;;;28.90;34.33
53715;BME280;39608;55.630;37.864;2022-08-04T17:54:10;99975.50;;;28.76;35.22
53715;BME280;39608;55.630;37.864;2022-08-04T17:59:18;99971.16;;;28.72;35.58
53715;BME280;39608;55.630;37.864;2022-08-04T18:04:28;99984.34;;;28.64;36.16
53715;BME280;39608;55.630;37.864;2022-08-04T18:09:34;99982.78;;;28.63;36.30
53715;BME280;39608;55.630;37.864;2022-08-04T18:14:38;99983.19;;;28.54;36.89
53715;BME280;39608;55.630;37.864;2022-08-04T18:19:59;99978.38;;;28.58;35.89
53715;BME280;39608;55.630;37.864;2022-08-04T18:25:05;99987.25;;;28.39;36.86
53715;BME280;39608;55.630;37.864;2022-08-04T18:30:08;99992.66;;;28.78;35.01
53715;BME280;39608;55.630;37.864;2022-08-04T18:35:10;99999.19;;;28.43;37.27
53715;BME280;39608;55.630;37.864;2022-08-04T18:40:14;99992.81;;;28.39;37.70
53715;BME280;39608;55.630;37.864;2022-08-04T18:45:16;99995.63;;;28.35;37.79
53715;BME280;39608;55.630;37.864;2022-08-04T18:50:18;99991.66;;;28.29;38.16
53715;BME280;39608;55.630;37.864;2022-08-04T18:55:26;100001.59;;;28.37;38.08
53715;BME280;39608;55.630;37.864;2022-08-04T19:00:29;99997.66;;;28.27;39.13
53715;BME280;39608;55.630;37.864;2022-08-04T19:05:31;100003.66;;;28.19;39.20
53715;BME280;39608;55.630;37.864;2022-08-04T19:10:35;100008.47;;;28.14;39.57
53715;BME280;39608;55.630;37.864;2022-08-04T19:15:37;100000.94;;;28.00;39.97
53715;BME280;39608;55.630;37.864;2022-08-04T19:20:39;100010.47;;;27.92;40.22
53715;BME280;39608;55.630;37.864;2022-08-04T19:25:43;100010.91;;;27.83;39.60
53715;BME280;39608;55.630;37.864;2022-08-04T19:30:46;100016.88;;;27.64;41.05
53715;BME280;39608;55.630;37.864;2022-08-04T19:35:49;100022.47;;;27.57;40.29
53715;BME280;39608;55.630;37.864;2022-08-04T19:40:52;100025.66;;;27.52;40.74
53715;BME280;39608;55.630;37.864;2022-08-04T19:45:54;100024.88;;;27.44;41.44
53715;BME280;39608;55.630;37.864;2022-08-04T19:50:56;100019.28;;;27.40;41.88
53715;BME280;39608;55.630;37.864;2022-08-04T19:56:00;100019.28;;;27.37;42.05
53715;BME280;39608;55.630;37.864;2022-08-04T20:01:02;100022.84;;;27.23;42.27
53715;BME280;39608;55.630;37.864;2022-08-04T20:06:05;100018.03;;;27.05;42.93
53715;BME280;39608;55.630;37.864;2022-08-04T20:11:10;100018.00;;;26.91;42.80
53715;BME280;39608;55.630;37.864;2022-08-04T20:16:12;100023.53;;;26.80;43.03
53715;BME280;39608;55.630;37.864;2022-08-04T20:21:15;100019.16;;;26.75;43.09
53715;BME280;39608;55.630;37.864;2022-08-04T20:26:18;100016.78;;;26.74;42.60
53715;BME280;39608;55.630;37.864;2022-08-04T20:31:20;100009.53;;;26.62;43.56
53715;BME280;39608;55.630;37.864;2022-08-04T20:36:23;100012.31;;;26.58;44.18
53715;BME280;39608;55.630;37.864;2022-08-04T20:41:26;100021.44;;;26.55;43.53
53715;BME280;39608;55.630;37.864;2022-08-04T20:46:28;100017.41;;;26.45;43.80
53715;BME280;39608;55.630;37.864;2022-08-04T20:51:30;100019.78;;;26.40;43.89
53715;BME280;39608;55.630;37.864;2022-08-04T20:56:35;100017.38;;;26.38;43.82
53715;BME280;39608;55.630;37.864;2022-08-04T21:01:37;100024.91;;;26.34;44.16
53715;BME280;39608;55.630;37.864;2022-08-04T21:06:39;100026.88;;;26.26;44.86
53715;BME280;39608;55.630;37.864;2022-08-04T21:11:42;100026.44;;;26.21;44.90
53715;BME280;39608;55.630;37.864;2022-08-04T21:16:45;100022.81;;;26.09;45.22
53715;BME280;39608;55.630;37.864;2022-08-04T21:21:47;100023.56;;;26.03;45.32
53715;BME280;39608;55.630;37.864;2022-08-04T21:26:51;100025.19;;;26.07;44.65
53715;BME280;39608;55.630;37.864;2022-08-04T21:31:53;100015.56;;;25.98;44.99
53715;BME280;39608;55.630;37.864;2022-08-04T21:36:56;100017.91;;;25.92;45.66
53715;BME280;39608;55.630;37.864;2022-08-04T21:41:59;100025.03;;;25.86;45.33
53715;BME280;39608;55.630;37.864;2022-08-04T21:47:01;100024.56;;;25.76;45.98
53715;BME280;39608;55.630;37.864;2022-08-04T21:52:04;100019.34;;;25.71;45.94
53715;BME280;39608;55.630;37.864;2022-08-04T21:57:07;100019.34;;;25.71;45.57
53715;BME280;39608;55.630;37.864;2022-08-04T22:02:11;100016.50;;;25.64;46.08
53715;BME280;39608;55.630;37.864;2022-08-04T22:07:19;100012.88;;;25.53;46.04
53715;BME280;39608;55.630;37.864;2022-08-04T22:12:26;100027.97;;;25.55;46.32
53715;BME280;39608;55.630;37.864;2022-08-04T22:17:28;100032.63;;;25.44;46.07
53715;BME280;39608;55.630;37.864;2022-08-04T22:22:32;100030.31;;;25.50;46.11
53715;BME280;39608;55.630;37.864;2022-08-04T22:27:36;100031.06;;;25.47;46.51
53715;BME280;39608;55.630;37.864;2022-08-04T22:32:55;100025.88;;;25.41;46.74
53715;BME280;39608;55.630;37.864;2022-08-04T22:37:58;100033.75;;;25.36;47.02
53715;BME280;39608;55.630;37.864;2022-08-04T22:43:01;100036.47;;;25.32;46.89
53715;BME280;39608;55.630;37.864;2022-08-04T22:48:05;100020.53;;;25.25;46.88
53715;BME280;39608;55.630;37.864;2022-08-04T22:53:09;100027.16;;;25.10;47.47
53715;BME280;39608;55.630;37.864;2022-08-04T22:58:13;100037.34;;;25.02;47.73
53715;BME280;39608;55.630;37.864;2022-08-04T23:03:17;100032.53;;;24.96;47.67
53715;BME280;39608;55.630;37.864;2022-08-04T23:08:19;100027.69;;;24.89;47.91
53715;BME280;39608;55.630;37.864;2022-08-04T23:13:22;100031.22;;;24.82;48.20
53715;BME280;39608;55.630;37.864;2022-08-04T23:18:25;100031.06;;;24.71;48.65
53715;BME280;39608;55.630;37.864;2022-08-04T23:23:29;100038.56;;;24.67;48.89
53715;BME280;39608;55.630;37.864;2022-08-04T23:28:33;100039.00;;;24.73;48.54
53715;BME280;39608;55.630;37.864;2022-08-04T23:33:35;100038.19;;;24.69;48.82
53715;BME280;39608;55.630;37.864;2022-08-04T23:38:38;100034.78;;;24.52;49.42
53715;BME280;39608;55.630;37.864;2022-08-04T23:43:41;100038.16;;;24.38;49.21
53715;BME280;39608;55.630;37.864;2022-08-04T23:48:44;100042.34;;;24.25;49.96
53715;BME280;39608;55.630;37.864;2022-08-04T23:53:47;100054.41;;;24.09;50.26
53715;BME280;39608;55.630;37.864;2022-08-04T23:58:50;100056.22;;;23.98;50.35
